Time;durP1;ratioP1;P1;durP2;ratioP2;P2;SDS_P1;SDS_P2;PMS_P1;PMS_P2;Temp;Humidity;BMP_temperature;BMP_pressure;BME280_temperature;BME280_humidity;BME280_pressure;Samples;Min_cycle;Max_cycle;Signal;HPM_P1;HPM_P2
2022/01/31 00:02:09;;;;;;;0.40;0.40;;;3.80;99.90;;;;;;5276036;28;20074;-74
2022/01/31 00:04:43;;;;;;;0.50;0.50;;;3.80;99.90;;;;;;5250538;28;20669;-74
2022/01/31 00:07:14;;;;;;;0.90;0.90;;;3.70;99.90;;;;;;5241996;28;20035;-74
2022/01/31 00:09:45;;;;;;;0.35;0.35;;;3.80;99.90;;;;;;5259803;28;20065;-74
2022/01/31 00:12:23;;;;;;;0.70;0.70;;;3.80;99.90;;;;;;5225295;28;20031;-73
2022/01/31 00:15:03;;;;;;;0.40;0.40;;;3.70;99.90;;;;;;5259808;28;20043;-74
2022/01/31 00:17:33;;;;;;;0.47;0.47;;;3.70;99.90;;;;;;5241956;28;20028;-73
2022/01/31 00:20:07;;;;;;;0.50;0.50;;;3.70;99.90;;;;;;5259853;28;20032;-73
2022/01/31 00:22:39;;;;;;;0.50;0.50;;;3.70;99.90;;;;;;5278877;28;20015;-74
2022/01/31 00:25:10;;;;;;;0.50;0.50;;;3.70;99.90;;;;;;5276306;28;20032;-74
2022/01/31 00:27:41;;;;;;;0.40;0.40;;;3.70;99.90;;;;;;5262096;28;20020;-74
2022/01/31 00:30:14;;;;;;;0.40;0.40;;;3.70;99.90;;;;;;5247447;27;20534;-74
2022/01/31 00:32:48;;;;;;;0.40;0.40;;;3.70;99.90;;;;;;5280304;28;20042;-74
2022/01/31 00:35:22;;;;;;;0.45;0.45;;;3.70;99.90;;;;;;5280041;28;20039;-74
2022/01/31 00:37:55;;;;;;;0.83;0.83;;;3.80;99.90;;;;;;5264484;27;20023;-74
2022/01/31 00:40:28;;;;;;;0.40;0.40;;;3.70;99.90;;;;;;5280653;28;20243;-74
2022/01/31 00:43:03;;;;;;;0.50;0.50;;;3.50;99.90;;;;;;5282368;28;20076;-74
2022/01/31 00:45:43;;;;;;;0.40;0.40;;;3.60;99.90;;;;;;5282472;28;20392;-74
2022/01/31 00:48:19;;;;;;;0.55;0.55;;;3.50;99.90;;;;;;5248325;28;20054;-74
2022/01/31 00:50:52;;;;;;;0.50;0.50;;;3.40;99.90;;;;;;5280226;28;20031;-74
2022/01/31 00:53:23;;;;;;;0.60;0.60;;;3.40;99.90;;;;;;5278689;28;20063;-74
2022/01/31 00:55:58;;;;;;;0.50;0.50;;;3.50;99.90;;;;;;5272113;28;20027;-74
2022/01/31 00:58:29;;;;;;;0.43;0.43;;;3.40;99.90;;;;;;5279007;28;20028;-74
2022/01/31 01:00:59;;;;;;;0.50;0.50;;;3.40;99.90;;;;;;5262183;28;20439;-74
2022/01/31 01:03:35;;;;;;;0.55;0.55;;;3.50;99.90;;;;;;5281068;28;20634;-74
2022/01/31 01:06:06;;;;;;;1.10;1.10;;;3.40;99.90;;;;;;5253467;28;20043;-74
2022/01/31 01:08:38;;;;;;;0.50;0.50;;;3.40;99.90;;;;;;5279915;28;20122;-73
2022/01/31 01:11:14;;;;;;;0.57;0.57;;;3.40;99.90;;;;;;5277417;28;20020;-74
2022/01/31 01:13:47;;;;;;;0.40;0.40;;;3.40;99.90;;;;;;5266828;28;20031;-74
2022/01/31 01:16:23;;;;;;;4.22;0.95;;;3.50;99.90;;;;;;5265970;28;20017;-74
2022/01/31 01:18:56;;;;;;;0.40;0.40;;;3.50;99.90;;;;;;5286345;28;20069;-74
2022/01/31 01:21:29;;;;;;;2.05;1.40;;;3.50;99.90;;;;;;5285606;28;20414;-74
2022/01/31 01:24:02;;;;;;;0.40;0.40;;;3.40;99.90;;;;;;5282921;28;20529;-73
2022/01/31 01:26:36;;;;;;;0.53;0.53;;;3.40;99.90;;;;;;5270618;28;20639;-73
2022/01/31 01:29:10;;;;;;;0.57;0.57;;;3.50;99.90;;;;;;5229828;28;20023;-73
2022/01/31 01:31:44;;;;;;;0.60;0.60;;;3.50;99.90;;;;;;5228724;28;20035;-74
2022/01/31 01:34:21;;;;;;;0.50;0.50;;;3.50;99.90;;;;;;5245609;28;20061;-73
2022/01/31 01:36:57;;;;;;;0.60;0.60;;;3.40;99.90;;;;;;5266189;28;20020;-74
2022/01/31 01:39:28;;;;;;;0.50;0.50;;;3.20;99.90;;;;;;5266489;28;20027;-74
2022/01/31 01:42:04;;;;;;;0.68;0.68;;;3.20;99.90;;;;;;5258772;28;20023;-74
2022/01/31 01:44:46;;;;;;;0.50;0.50;;;3.20;99.90;;;;;;5262738;28;20077;-75
2022/01/31 01:47:24;;;;;;;0.70;0.70;;;3.30;99.90;;;;;;5262734;28;20019;-74
2022/01/31 01:49:57;;;;;;;0.50;0.50;;;3.20;99.90;;;;;;5281177;28;20023;-77
2022/01/31 01:52:28;;;;;;;0.53;0.53;;;3.40;99.90;;;;;;5271006;28;20039;-75
2022/01/31 01:55:00;;;;;;;0.40;0.40;;;3.40;99.90;;;;;;5264361;28;20398;-74
2022/01/31 01:57:31;;;;;;;0.77;0.77;;;3.50;99.90;;;;;;5244592;28;20358;-74
2022/01/31 02:00:04;;;;;;;0.63;0.63;;;3.40;99.90;;;;;;5262025;28;20020;-74
2022/01/31 02:02:37;;;;;;;0.40;0.40;;;3.40;99.90;;;;;;5244113;28;20069;-73
2022/01/31 02:05:11;;;;;;;0.60;0.60;;;3.30;99.90;;;;;;5260563;28;20360;-73
2022/01/31 02:07:45;;;;;;;0.60;0.60;;;3.30;99.90;;;;;;5268525;28;20093;-74
2022/01/31 02:10:25;;;;;;;0.93;0.93;;;3.30;99.90;;;;;;5244513;28;20032;-74
2022/01/31 02:13:02;;;;;;;0.40;0.40;;;3.20;99.90;;;;;;5262376;28;20466;-74
2022/01/31 02:15:40;;;;;;;0.35;0.35;;;3.20;99.90;;;;;;5247651;28;20179;-74
2022/01/31 02:18:12;;;;;;;0.40;0.40;;;3.20;99.90;;;;;;5262078;28;20012;-74
2022/01/31 02:20:44;;;;;;;0.60;0.60;;;3.10;99.90;;;;;;5262235;28;20024;-73
2022/01/31 02:23:15;;;;;;;0.40;0.40;;;3.00;99.90;;;;;;5254281;28;20476;-73
2022/01/31 02:25:55;;;;;;;0.60;0.60;;;2.90;99.90;;;;;;5261975;28;20178;-73
2022/01/31 02:28:28;;;;;;;0.50;0.50;;;2.80;99.90;;;;;;5281731;28;20058;-74
2022/01/31 02:31:00;;;;;;;0.40;0.40;;;2.90;99.90;;;;;;5282822;28;20016;-74
2022/01/31 02:33:33;;;;;;;0.50;0.50;;;3.00;99.90;;;;;;5279907;28;20016;-73
2022/01/31 02:36:11;;;;;;;0.60;0.60;;;3.00;99.90;;;;;;5283102;28;20050;-73
2022/01/31 02:38:42;;;;;;;0.50;0.50;;;3.00;99.90;;;;;;5282988;28;20097;-73
2022/01/31 02:41:13;;;;;;;0.45;0.45;;;3.00;99.90;;;;;;5282553;28;20457;-74
2022/01/31 02:43:49;;;;;;;0.43;0.43;;;2.90;99.90;;;;;;5279363;28;20444;-73
2022/01/31 02:46:26;;;;;;;0.65;0.65;;;3.00;99.90;;;;;;5281469;28;20095;-74
2022/01/31 02:49:00;;;;;;;0.60;0.60;;;3.00;99.90;;;;;;5261972;28;20132;-75
2022/01/31 02:51:36;;;;;;;0.52;0.52;;;2.90;99.90;;;;;;5280573;28;20031;-74
2022/01/31 02:54:10;;;;;;;0.50;0.50;;;2.80;99.90;;;;;;5264550;28;20015;-74
2022/01/31 02:56:43;;;;;;;0.50;0.50;;;2.90;99.90;;;;;;5248656;28;20217;-74
2022/01/31 02:59:17;;;;;;;0.60;0.60;;;2.80;99.90;;;;;;5240184;28;20540;-74
2022/01/31 03:01:48;;;;;;;0.60;0.60;;;2.70;99.90;;;;;;5261262;28;20794;-74
2022/01/31 03:04:21;;;;;;;0.80;0.80;;;2.60;99.90;;;;;;5249770;28;20043;-75
2022/01/31 03:06:55;;;;;;;0.60;0.60;;;2.70;99.90;;;;;;5267076;28;20039;-75
2022/01/31 03:09:26;;;;;;;0.40;0.40;;;2.60;99.90;;;;;;5262108;28;20063;-74
2022/01/31 03:11:58;;;;;;;0.40;0.40;;;2.60;99.90;;;;;;5246040;27;20035;-74
2022/01/31 03:14:32;;;;;;;0.47;0.47;;;2.60;99.90;;;;;;5280862;27;20035;-74
2022/01/31 03:17:07;;;;;;;0.70;0.70;;;2.60;99.90;;;;;;5282341;28;20090;-75
2022/01/31 03:19:42;;;;;;;0.60;0.60;;;2.50;99.90;;;;;;5261562;28;20016;-74
2022/01/31 03:22:19;;;;;;;0.50;0.50;;;2.40;99.90;;;;;;5276277;28;20018;-74
2022/01/31 03:24:54;;;;;;;0.50;0.50;;;2.40;99.90;;;;;;5281437;28;20087;-75
2022/01/31 03:27:25;;;;;;;0.57;0.57;;;2.30;99.90;;;;;;5262862;28;20375;-75
2022/01/31 03:29:59;;;;;;;1.50;0.77;;;2.30;99.90;;;;;;5280874;28;20020;-74
2022/01/31 03:32:29;;;;;;;0.80;0.80;;;2.30;99.90;;;;;;5246196;28;20404;-74
2022/01/31 03:35:03;;;;;;;1.58;1.58;;;2.40;99.90;;;;;;5264100;28;20092;-74
2022/01/31 03:37:38;;;;;;;1.52;1.42;;;2.30;99.90;;;;;;5264086;28;20043;-74
2022/01/31 03:40:11;;;;;;;;;;;2.50;99.90;;;;;;5281064;28;20024;-73
2022/01/31 03:42:42;;;;;;;0.60;0.60;;;2.50;99.90;;;;;;5277950;28;19960;-74
2022/01/31 03:45:13;;;;;;;0.57;0.57;;;2.50;99.90;;;;;;5279464;28;20027;-73
2022/01/31 03:47:49;;;;;;;0.50;0.50;;;2.50;99.90;;;;;;5272695;28;20038;-73
2022/01/31 03:50:19;;;;;;;0.40;0.40;;;2.60;99.90;;;;;;5280158;28;20674;-73
2022/01/31 03:52:52;;;;;;;0.50;0.50;;;2.60;99.90;;;;;;5280035;28;20120;-74
2022/01/31 03:55:28;;;;;;;0.70;0.70;;;2.50;99.90;;;;;;5262910;28;20020;-73
2022/01/31 03:57:59;;;;;;;0.80;0.80;;;2.50;99.90;;;;;;5263515;28;20047;-74
2022/01/31 04:00:30;;;;;;;0.50;0.50;;;2.40;99.90;;;;;;5246347;28;20032;-73
2022/01/31 04:03:06;;;;;;;0.40;0.40;;;2.40;99.90;;;;;;5281051;28;20015;-74
2022/01/31 04:05:37;;;;;;;0.70;0.70;;;2.40;99.90;;;;;;5252920;28;20093;-75
2022/01/31 04:08:12;;;;;;;0.50;0.50;;;2.40;99.90;;;;;;5281284;28;20035;-74
2022/01/31 04:10:42;;;;;;;0.60;0.60;;;2.30;99.90;;;;;;5278636;28;20073;-74
2022/01/31 04:13:18;;;;;;;0.30;0.30;;;2.40;99.90;;;;;;5283165;28;20028;-74
2022/01/31 04:15:49;;;;;;;0.70;0.70;;;2.30;99.90;;;;;;5261998;28;20481;-75
2022/01/31 04:18:23;;;;;;;0.40;0.40;;;2.40;99.90;;;;;;5282007;28;20081;-74
2022/01/31 04:20:54;;;;;;;0.47;0.47;;;2.40;99.90;;;;;;5282303;28;20076;-74
2022/01/31 04:23:27;;;;;;;0.63;0.63;;;2.40;99.90;;;;;;5262807;28;20035;-74
2022/01/31 04:26:10;;;;;;;0.75;0.75;;;2.50;99.90;;;;;;5280306;28;20094;-74
2022/01/31 04:29:01;;;;;;;0.50;0.50;;;2.50;99.90;;;;;;5280883;28;20043;-74
2022/01/31 04:31:44;;;;;;;0.50;0.50;;;2.50;99.90;;;;;;5263408;28;20020;-73
2022/01/31 04:34:21;;;;;;;0.40;0.40;;;2.50;99.90;;;;;;5265459;28;20442;-74
2022/01/31 04:36:52;;;;;;;0.50;0.50;;;2.50;99.90;;;;;;5262893;28;20015;-73
2022/01/31 04:39:22;;;;;;;3.33;3.17;;;2.50;99.90;;;;;;5281494;28;20252;-73
2022/01/31 04:41:56;;;;;;;10.05;4.13;;;2.50;99.90;;;;;;5263355;28;20059;-73
2022/01/31 04:44:30;;;;;;;0.50;0.50;;;2.60;99.90;;;;;;5252599;28;20108;-74
2022/01/31 04:47:00;;;;;;;0.60;0.60;;;2.50;99.90;;;;;;5261730;28;20031;-73
2022/01/31 04:49:35;;;;;;;0.43;0.43;;;2.60;99.90;;;;;;5280365;28;20054;-72
2022/01/31 04:52:05;;;;;;;;;;;2.50;99.90;;;;;;5280976;28;20099;-75
2022/01/31 04:54:36;;;;;;;0.70;0.70;;;2.60;99.90;;;;;;5280845;28;20351;-73
2022/01/31 04:57:08;;;;;;;0.50;0.50;;;2.60;99.90;;;;;;5280495;28;20069;-73
2022/01/31 04:59:43;;;;;;;0.40;0.40;;;2.60;99.90;;;;;;5262276;28;20132;-73
2022/01/31 05:02:22;;;;;;;0.40;0.40;;;2.60;99.90;;;;;;5261455;28;20095;-74
2022/01/31 05:05:02;;;;;;;0.40;0.40;;;2.50;99.90;;;;;;5269263;28;20059;-73
2022/01/31 05:07:38;;;;;;;4.78;2.15;;;2.50;99.90;;;;;;5279202;28;20019;-73
2022/01/31 05:10:09;;;;;;;1.00;1.00;;;2.50;99.90;;;;;;5266070;28;20542;-74
2022/01/31 05:12:43;;;;;;;0.50;0.50;;;2.50;99.90;;;;;;5266434;28;20040;-74
2022/01/31 05:15:14;;;;;;;0.80;0.80;;;2.40;99.90;;;;;;5271283;28;20035;-74
2022/01/31 05:17:45;;;;;;;0.50;0.50;;;2.40;99.90;;;;;;5261270;28;20089;-75
2022/01/31 05:20:18;;;;;;;0.70;0.70;;;2.40;99.90;;;;;;5245468;28;20026;-75
2022/01/31 05:22:49;;;;;;;0.60;0.60;;;2.40;99.90;;;;;;5279947;28;20028;-74
2022/01/31 05:25:20;;;;;;;1.88;1.25;;;2.30;99.90;;;;;;5280642;28;20171;-74
2022/01/31 05:27:52;;;;;;;0.50;0.50;;;2.40;99.90;;;;;;5281888;28;20047;-74
2022/01/31 05:30:23;;;;;;;0.82;0.82;;;2.40;99.90;;;;;;5263690;28;20073;-74
2022/01/31 05:32:54;;;;;;;0.50;0.50;;;2.50;99.90;;;;;;5279255;28;20035;-74
2022/01/31 05:35:27;;;;;;;0.57;0.57;;;2.60;99.90;;;;;;5280135;28;20095;-74
2022/01/31 05:37:58;;;;;;;0.57;0.57;;;2.50;99.90;;;;;;5279366;28;20020;-74
2022/01/31 05:40:31;;;;;;;0.40;0.40;;;2.40;99.90;;;;;;5279196;28;20038;-74
2022/01/31 05:43:02;;;;;;;0.60;0.60;;;2.30;99.90;;;;;;5259996;28;20376;-75
2022/01/31 05:45:35;;;;;;;0.60;0.60;;;2.40;99.90;;;;;;5277775;28;20050;-74
2022/01/31 05:48:08;;;;;;;0.63;0.63;;;2.40;99.90;;;;;;5279794;28;20050;-74
2022/01/31 05:50:41;;;;;;;0.45;0.45;;;2.50;99.90;;;;;;5279538;28;20019;-74
2022/01/31 05:53:14;;;;;;;0.98;0.98;;;2.50;99.90;;;;;;5280040;28;20030;-74
2022/01/31 05:55:45;;;;;;;0.40;0.40;;;2.60;99.90;;;;;;5279430;28;20016;-74
2022/01/31 05:58:19;;;;;;;0.70;0.70;;;2.60;99.90;;;;;;5244892;28;20036;-75
2022/01/31 06:00:52;;;;;;;0.40;0.40;;;2.50;99.90;;;;;;5276746;28;20035;-74
2022/01/31 06:03:22;;;;;;;0.40;0.40;;;2.40;99.90;;;;;;5284189;28;20448;-75
2022/01/31 06:05:53;;;;;;;0.68;0.68;;;2.40;99.90;;;;;;5257309;28;20047;-74
2022/01/31 06:08:29;;;;;;;1.27;1.27;;;2.40;99.90;;;;;;5282716;28;20028;-74
2022/01/31 06:11:00;;;;;;;0.60;0.60;;;2.40;99.90;;;;;;5281400;28;20015;-77
2022/01/31 06:13:33;;;;;;;0.50;0.50;;;2.30;99.90;;;;;;5274000;28;20063;-75
2022/01/31 06:16:04;;;;;;;0.40;0.40;;;2.30;99.90;;;;;;5248559;28;20367;-75
2022/01/31 06:18:37;;;;;;;0.50;0.50;;;2.30;99.90;;;;;;5265739;28;20027;-75
2022/01/31 06:21:11;;;;;;;0.52;0.52;;;2.30;99.90;;;;;;5283543;28;20097;-75
2022/01/31 06:23:44;;;;;;;0.40;0.40;;;2.30;99.90;;;;;;5248820;28;20023;-75
2022/01/31 06:26:14;;;;;;;0.77;0.77;;;2.30;99.90;;;;;;5283985;28;20015;-76
2022/01/31 06:28:47;;;;;;;0.52;0.52;;;2.20;99.90;;;;;;5283141;28;20027;-75
2022/01/31 06:31:18;;;;;;;0.50;0.50;;;2.20;99.90;;;;;;5283160;28;20023;-75
2022/01/31 06:33:51;;;;;;;0.40;0.40;;;2.20;99.90;;;;;;5264488;28;20340;-74
2022/01/31 06:36:23;;;;;;;2.50;1.63;;;2.10;99.90;;;;;;5247838;28;20383;-75
2022/01/31 06:38:54;;;;;;;0.77;0.77;;;2.10;99.90;;;;;;5250500;27;20080;-75
2022/01/31 06:41:26;;;;;;;0.85;0.85;;;2.20;99.90;;;;;;5277008;28;20028;-75
2022/01/31 06:43:59;;;;;;;0.52;0.52;;;2.20;99.90;;;;;;5283679;28;20026;-75
2022/01/31 06:46:30;;;;;;;0.50;0.50;;;2.10;99.90;;;;;;5280574;28;20068;-75
2022/01/31 06:49:03;;;;;;;0.55;0.55;;;2.20;99.90;;;;;;5265020;28;20484;-75
2022/01/31 06:51:34;;;;;;;0.50;0.50;;;2.20;99.90;;;;;;5282099;28;20032;-75
2022/01/31 06:54:06;;;;;;;0.77;0.77;;;2.30;99.90;;;;;;5248008;28;20027;-75
2022/01/31 06:56:40;;;;;;;0.40;0.40;;;2.30;99.90;;;;;;5283318;28;20585;-75
2022/01/31 06:59:10;;;;;;;0.77;0.77;;;2.40;99.90;;;;;;5282857;28;20023;-75
2022/01/31 07:01:41;;;;;;;1.10;1.10;;;2.40;99.90;;;;;;5283644;28;20115;-75
2022/01/31 07:04:15;;;;;;;0.73;0.73;;;2.40;99.90;;;;;;5255794;28;20503;-75
2022/01/31 07:06:50;;;;;;;0.60;0.60;;;2.40;99.90;;;;;;5276610;28;20012;-75
2022/01/31 07:09:22;;;;;;;5.15;1.75;;;2.40;99.90;;;;;;5258649;28;20020;-74
2022/01/31 07:11:57;;;;;;;0.60;0.60;;;2.50;99.90;;;;;;5276765;27;20039;-75
2022/01/31 07:14:32;;;;;;;0.60;0.60;;;2.60;99.90;;;;;;5290841;27;20019;-74
2022/01/31 07:17:05;;;;;;;0.60;0.60;;;2.60;99.90;;;;;;5276565;27;20582;-73
2022/01/31 07:19:42;;;;;;;0.63;0.63;;;2.70;99.90;;;;;;5261629;28;20109;-74
2022/01/31 07:22:14;;;;;;;0.70;0.70;;;2.70;99.90;;;;;;5244640;28;20118;-74
2022/01/31 07:25:00;;;;;;;0.60;0.60;;;2.60;99.90;;;;;;5262148;28;20016;-73
2022/01/31 07:27:31;;;;;;;0.60;0.60;;;2.60;99.90;;;;;;5258776;28;20305;-73
2022/01/31 07:30:04;;;;;;;0.70;0.70;;;2.50;99.90;;;;;;5264886;28;20278;-73
2022/01/31 07:32:42;;;;;;;0.50;0.50;;;2.50;99.90;;;;;;5282557;28;20249;-73
2022/01/31 07:35:18;;;;;;;0.40;0.40;;;2.50;99.90;;;;;;5243614;28;20087;-73
2022/01/31 07:37:48;;;;;;;0.88;0.88;;;2.60;99.90;;;;;;5261761;28;20023;-73
2022/01/31 07:40:21;;;;;;;0.73;0.73;;;2.60;99.90;;;;;;5283048;28;20391;-73
2022/01/31 07:42:54;;;;;;;0.60;0.60;;;2.60;99.90;;;;;;5283007;28;20060;-73
2022/01/31 07:45:29;;;;;;;1.05;1.05;;;2.70;99.90;;;;;;5283033;28;20016;-73
2022/01/31 07:48:02;;;;;;;0.50;0.50;;;2.90;99.90;;;;;;5267800;28;20031;-73
2022/01/31 07:50:36;;;;;;;0.40;0.40;;;3.00;99.90;;;;;;5265178;28;20033;-74
2022/01/31 07:53:07;;;;;;;0.38;0.38;;;3.20;99.90;;;;;;5265191;28;20066;-74
2022/01/31 07:55:37;;;;;;;0.77;0.77;;;3.30;99.90;;;;;;5283520;27;20031;-74
2022/01/31 07:58:08;;;;;;;0.73;0.73;;;3.40;99.90;;;;;;5280894;28;20344;-74
2022/01/31 08:00:43;;;;;;;0.50;0.50;;;3.50;99.90;;;;;;5283196;28;20087;-73
2022/01/31 08:03:14;;;;;;;0.85;0.85;;;3.50;99.90;;;;;;5260024;28;20071;-73
2022/01/31 08:05:47;;;;;;;0.57;0.57;;;3.70;99.90;;;;;;5267893;28;21024;-73
2022/01/31 08:08:20;;;;;;;1.25;1.23;;;3.60;99.90;;;;;;5272794;28;20020;-74
2022/01/31 08:11:00;;;;;;;0.80;0.80;;;3.70;99.90;;;;;;5282513;28;20095;-73
2022/01/31 08:13:33;;;;;;;1.23;1.23;;;3.80;99.90;;;;;;5281648;28;20059;-74
2022/01/31 08:16:13;;;;;;;0.68;0.68;;;4.00;99.90;;;;;;5281847;28;20023;-73
2022/01/31 08:18:49;;;;;;;0.50;0.50;;;4.00;99.90;;;;;;5260222;28;20465;-73
2022/01/31 08:21:25;;;;;;;0.40;0.40;;;3.90;99.90;;;;;;5283591;27;20094;-72
2022/01/31 08:23:59;;;;;;;0.40;0.40;;;3.80;99.90;;;;;;5292199;27;20565;-73
2022/01/31 08:26:31;;;;;;;0.52;0.52;;;3.90;99.90;;;;;;5279256;28;20043;-73
2022/01/31 08:29:08;;;;;;;0.57;0.57;;;3.80;99.90;;;;;;5247093;28;20035;-75
2022/01/31 08:31:40;;;;;;;1.20;1.20;;;3.80;99.90;;;;;;5277845;28;20595;-74
2022/01/31 08:36:47;;;;;;;0.40;0.40;;;3.90;99.90;;;;;;5262079;28;20080;-76
2022/01/31 08:39:21;;;;;;;1.55;1.45;;;3.80;99.90;;;;;;5278196;28;20114;-75
2022/01/31 08:42:00;;;;;;;0.40;0.40;;;3.80;99.90;;;;;;5256160;28;20028;-74
2022/01/31 08:44:34;;;;;;;0.93;0.93;;;3.70;99.90;;;;;;5284599;27;20023;-74
2022/01/31 08:47:05;;;;;;;0.52;0.52;;;3.60;99.90;;;;;;5302049;27;20027;-73
2022/01/31 08:49:36;;;;;;;0.70;0.70;;;3.60;99.90;;;;;;5283420;27;20042;-74
2022/01/31 08:52:15;;;;;;;0.50;0.50;;;3.70;99.90;;;;;;5257027;28;20054;-74
2022/01/31 08:54:48;;;;;;;1.60;1.50;;;3.80;99.90;;;;;;5278559;28;20026;-74
2022/01/31 08:57:18;;;;;;;1.60;1.50;;;4.00;99.90;;;;;;5245250;28;20249;-75
2022/01/31 08:59:51;;;;;;;1.05;1.05;;;4.10;99.90;;;;;;5277621;28;20023;-74
2022/01/31 09:02:36;;;;;;;0.70;0.70;;;4.20;99.90;;;;;;5266795;28;20027;-74
2022/01/31 09:05:10;;;;;;;1.13;1.13;;;4.30;99.90;;;;;;5268310;28;20043;-74
2022/01/31 09:07:43;;;;;;;0.88;0.88;;;4.30;99.90;;;;;;5280506;28;20080;-74
2022/01/31 09:10:15;;;;;;;1.90;1.80;;;4.30;99.90;;;;;;5266477;28;20368;-73
2022/01/31 09:12:46;;;;;;;0.50;0.50;;;4.30;99.90;;;;;;5254960;28;20027;-73
2022/01/31 09:15:19;;;;;;;0.80;0.80;;;4.40;99.90;;;;;;5241613;28;20354;-73
2022/01/31 09:17:52;;;;;;;0.70;0.70;;;4.40;99.90;;;;;;5259672;28;20040;-73
2022/01/31 09:20:25;;;;;;;1.47;1.47;;;4.40;99.90;;;;;;5237820;28;20506;-74
2022/01/31 09:23:02;;;;;;;0.70;0.70;;;4.50;99.90;;;;;;5262470;28;20043;-73
2022/01/31 09:25:44;;;;;;;0.65;0.65;;;4.50;99.90;;;;;;5262598;28;20148;-74
2022/01/31 09:28:19;;;;;;;0.85;0.60;;;4.40;99.90;;;;;;5245683;28;20016;-74
2022/01/31 09:30:52;;;;;;;1.00;1.00;;;4.40;99.90;;;;;;5278340;28;20091;-74
2022/01/31 09:33:23;;;;;;;0.60;0.60;;;4.40;99.90;;;;;;5260810;28;20073;-74
2022/01/31 09:35:54;;;;;;;0.47;0.47;;;4.50;99.90;;;;;;5278520;28;20035;-73
2022/01/31 09:38:28;;;;;;;0.73;0.73;;;4.60;99.90;;;;;;5282649;28;20043;-73
2022/01/31 09:41:01;;;;;;;2.13;2.03;;;4.70;99.90;;;;;;5249190;28;20144;-73
2022/01/31 09:46:44;;;;;;;0.50;0.50;;;4.60;99.90;;;;;;5284505;28;20044;-74
2022/01/31 09:49:15;;;;;;;0.40;0.40;;;4.60;99.90;;;;;;5283096;28;20045;-75
2022/01/31 09:51:49;;;;;;;1.48;1.42;;;4.60;99.90;;;;;;5282653;28;20050;-73
2022/01/31 09:54:20;;;;;;;0.68;0.68;;;4.40;99.90;;;;;;5248430;28;20031;-73
2022/01/31 09:56:53;;;;;;;0.60;0.60;;;4.40;99.90;;;;;;5284687;28;20027;-74
2022/01/31 09:59:24;;;;;;;0.50;0.50;;;4.40;99.90;;;;;;5263979;28;20031;-73
2022/01/31 10:01:57;;;;;;;1.60;1.50;;;4.40;99.90;;;;;;5259183;28;20039;-74
2022/01/31 10:04:35;;;;;;;0.40;0.40;;;4.50;99.90;;;;;;5251380;28;20035;-73
2022/01/31 10:07:07;;;;;;;0.60;0.60;;;4.50;99.90;;;;;;5262333;28;20098;-74
2022/01/31 10:09:43;;;;;;;0.60;0.60;;;4.70;99.90;;;;;;5266643;28;20118;-75
2022/01/31 10:16:24;;;;;;;0.50;0.50;;;4.80;99.90;;;;;;5283320;28;20573;-73
2022/01/31 10:18:08;;;;;;;0.40;0.40;;;4.90;99.90;;;;;;5267816;28;20027;-74
2022/01/31 10:20:39;;;;;;;0.50;0.50;;;5.00;99.90;;;;;;5282799;27;20086;-75
2022/01/31 10:23:16;;;;;;;1.00;1.00;;;5.10;99.90;;;;;;5265258;28;20320;-75
2022/01/31 10:25:52;;;;;;;0.70;0.70;;;5.10;99.90;;;;;;5265543;28;20034;-75
2022/01/31 10:28:24;;;;;;;0.73;0.73;;;5.10;99.90;;;;;;5276817;28;20034;-75
2022/01/31 10:30:56;;;;;;;0.63;0.63;;;5.10;99.90;;;;;;5258784;28;20376;-75
2022/01/31 10:33:33;;;;;;;0.70;0.70;;;5.00;99.90;;;;;;5285288;27;20101;-75
2022/01/31 10:36:18;;;;;;;1.20;1.02;;;5.00;99.90;;;;;;5287131;27;20107;-75
2022/01/31 10:39:12;;;;;;;0.65;0.65;;;5.10;99.90;;;;;;5263409;28;20582;-76
2022/01/31 10:53:12;;;;;;;0.47;0.47;;;4.90;99.90;;;;;;5282374;28;20024;-75
2022/01/31 10:55:53;;;;;;;0.60;0.60;;;4.80;99.90;;;;;;5281620;28;20083;-75
2022/01/31 10:58:24;;;;;;;0.80;0.80;;;4.90;99.90;;;;;;5269035;28;20015;-75
2022/01/31 11:01:14;;;;;;;0.35;0.35;;;5.00;99.90;;;;;;5269286;28;20011;-75
2022/01/31 11:03:47;;;;;;;1.45;1.17;;;5.00;99.90;;;;;;5273939;27;20075;-75
2022/01/31 11:06:20;;;;;;;1.08;1.08;;;5.10;99.90;;;;;;5267180;28;20067;-75
2022/01/31 11:09:04;;;;;;;0.52;0.52;;;5.10;99.90;;;;;;5269789;28;20036;-75
2022/01/31 11:11:39;;;;;;;0.50;0.50;;;5.20;99.90;;;;;;5264016;28;20024;-74
2022/01/31 11:14:10;;;;;;;0.50;0.50;;;5.30;99.90;;;;;;5278049;28;20027;-74
2022/01/31 11:16:47;;;;;;;0.70;0.70;;;5.20;99.90;;;;;;5273703;28;20072;-75
2022/01/31 11:19:29;;;;;;;1.27;1.25;;;5.30;99.90;;;;;;5282083;28;20334;-75
2022/01/31 11:22:05;;;;;;;0.40;0.40;;;5.30;99.90;;;;;;5277473;28;20044;-75
2022/01/31 11:24:51;;;;;;;0.80;0.80;;;5.40;99.90;;;;;;5272234;28;20323;-75
2022/01/31 11:27:26;;;;;;;0.70;0.70;;;5.50;99.90;;;;;;5281653;28;20110;-74
2022/01/31 11:30:00;;;;;;;0.32;0.32;;;5.60;99.90;;;;;;5254555;28;20028;-74
2022/01/31 11:32:34;;;;;;;0.55;0.55;;;5.70;99.90;;;;;;5270486;28;20035;-74
2022/01/31 11:35:07;;;;;;;0.50;0.50;;;5.70;99.90;;;;;;5265652;28;20028;-73
2022/01/31 11:37:38;;;;;;;0.40;0.40;;;5.90;99.90;;;;;;5281442;28;20047;-74
2022/01/31 11:40:17;;;;;;;0.60;0.60;;;6.30;99.90;;;;;;5283118;27;20032;-74
2022/01/31 11:42:52;;;;;;;0.52;0.52;;;6.40;99.90;;;;;;5279473;28;20031;-75
2022/01/31 11:45:28;;;;;;;;;;;6.70;99.90;;;;;;5274446;28;20024;-74
2022/01/31 11:48:07;;;;;;;0.50;0.50;;;6.50;99.90;;;;;;5279543;28;19937;-74
2022/01/31 11:50:50;;;;;;;0.45;0.45;;;6.70;99.90;;;;;;5281299;28;20028;-74
2022/01/31 11:53:29;;;;;;;0.50;0.50;;;7.00;99.90;;;;;;5280477;27;20520;-76
2022/01/31 11:56:21;;;;;;;0.80;0.80;;;6.90;99.90;;;;;;5273880;28;20047;-76
2022/01/31 11:58:56;;;;;;;0.77;0.77;;;7.00;99.90;;;;;;5259171;27;20349;-75
2022/01/31 12:01:31;;;;;;;0.63;0.63;;;7.10;99.90;;;;;;5281338;28;20019;-75
2022/01/31 12:04:03;;;;;;;7.22;3.42;;;7.10;99.90;;;;;;5263434;28;20087;-75
2022/01/31 12:06:37;;;;;;;0.70;0.70;;;6.80;99.90;;;;;;5251970;28;20147;-76
2022/01/31 12:09:13;;;;;;;;;;;6.90;99.90;;;;;;5280684;28;20040;-74
2022/01/31 12:12:32;;;;;;;0.85;0.85;;;6.80;99.90;;;;;;5273544;28;20393;-73
2022/01/31 12:15:53;;;;;;;0.60;0.60;;;6.80;99.90;;;;;;5260566;27;20049;-74
2022/01/31 12:24:03;;;;;;;1.08;1.08;;;6.80;99.90;;;;;;5280340;28;20087;-73
2022/01/31 12:26:55;;;;;;;0.50;0.50;;;7.00;99.90;;;;;;5277929;28;20024;-75
2022/01/31 12:29:31;;;;;;;0.60;0.60;;;7.00;99.90;;;;;;5277803;28;20051;-74
2022/01/31 12:32:21;;;;;;;0.65;0.65;;;7.00;99.90;;;;;;5279523;28;20061;-73
2022/01/31 12:34:58;;;;;;;0.73;0.73;;;7.00;99.90;;;;;;5261504;28;20031;-73
2022/01/31 12:37:37;;;;;;;0.93;0.93;;;6.90;99.90;;;;;;5262154;28;20035;-74
2022/01/31 12:40:12;;;;;;;0.50;0.50;;;6.70;99.90;;;;;;5262012;28;20264;-74
2022/01/31 12:45:37;;;;;;;0.50;0.50;;;6.50;99.90;;;;;;5279702;28;20069;-74
2022/01/31 12:48:20;;;;;;;0.50;0.50;;;6.50;99.90;;;;;;5277522;28;20035;-75
2022/01/31 12:50:58;;;;;;;0.70;0.70;;;6.50;99.90;;;;;;5261594;28;20094;-74
2022/01/31 12:53:37;;;;;;;0.60;0.60;;;6.40;99.90;;;;;;5280142;28;20048;-73
2022/01/31 12:56:15;;;;;;;0.90;0.90;;;6.40;99.90;;;;;;5272009;28;20032;-73
2022/01/31 12:59:10;;;;;;;0.60;0.60;;;6.60;99.90;;;;;;5278881;28;20076;-74
2022/01/31 13:01:44;;;;;;;;;;;6.60;99.90;;;;;;5280446;28;20023;-73
2022/01/31 13:04:21;;;;;;;0.70;0.70;;;6.60;99.90;;;;;;5269998;28;20358;-74
2022/01/31 13:06:58;;;;;;;0.60;0.60;;;6.40;99.90;;;;;;5270978;28;20012;-73
2022/01/31 13:09:31;;;;;;;0.80;0.80;;;6.50;99.90;;;;;;5280824;28;20020;-74
2022/01/31 13:12:15;;;;;;;0.60;0.60;;;6.40;99.90;;;;;;5282550;28;20016;-74
2022/01/31 13:14:51;;;;;;;0.60;0.60;;;6.50;99.90;;;;;;5283750;28;20027;-73
2022/01/31 13:17:25;;;;;;;2.30;1.50;;;6.30;99.90;;;;;;5244834;28;20032;-73
2022/01/31 13:19:58;;;;;;;0.50;0.50;;;6.20;99.90;;;;;;5247273;28;20024;-73
2022/01/31 13:22:40;;;;;;;0.80;0.80;;;6.30;99.90;;;;;;5280597;28;20213;-73
2022/01/31 13:25:21;;;;;;;0.55;0.55;;;6.20;99.90;;;;;;5282913;28;20064;-73
2022/01/31 13:27:52;;;;;;;0.75;0.75;;;6.20;99.90;;;;;;5284722;28;20023;-73
2022/01/31 13:30:30;;;;;;;0.50;0.50;;;6.20;99.90;;;;;;5283251;28;20064;-74
2022/01/31 13:33:07;;;;;;;0.60;0.60;;;6.30;99.90;;;;;;5262550;28;20027;-73
2022/01/31 13:35:40;;;;;;;0.80;0.80;;;6.50;99.90;;;;;;5263523;28;20087;-74
2022/01/31 13:38:20;;;;;;;0.50;0.50;;;6.60;99.90;;;;;;5243627;28;20024;-74
2022/01/31 13:40:53;;;;;;;0.68;0.68;;;6.60;99.90;;;;;;5281337;28;20026;-74
2022/01/31 13:43:29;;;;;;;0.68;0.68;;;6.50;99.90;;;;;;5260718;28;20099;-73
2022/01/31 13:46:22;;;;;;;0.70;0.70;;;6.40;99.90;;;;;;5262661;28;20020;-74
2022/01/31 13:51:42;;;;;;;0.60;0.60;;;6.50;99.90;;;;;;5281385;28;20090;-74
2022/01/31 13:54:21;;;;;;;0.50;0.50;;;6.50;99.90;;;;;;5261023;28;20019;-73
2022/01/31 13:56:52;;;;;;;0.60;0.60;;;6.30;99.90;;;;;;5294805;27;20038;-76
2022/01/31 13:59:26;;;;;;;0.47;0.47;;;6.00;99.90;;;;;;5282043;28;20034;-74
2022/01/31 14:02:11;;;;;;;0.80;0.80;;;6.00;99.90;;;;;;5262499;28;20028;-74
2022/01/31 14:04:43;;;;;;;0.65;0.65;;;5.90;99.90;;;;;;5251385;28;20117;-74
2022/01/31 14:07:30;;;;;;;0.60;0.60;;;5.90;99.90;;;;;;5268629;28;20020;-74
2022/01/31 14:10:25;;;;;;;0.60;0.60;;;5.80;99.90;;;;;;5264525;28;20020;-73